Airport, Ohio
Current Conditions -  °F | °C
As of 1:52 AM on Sunday 21 Dec 2014 (Local Time) from KCVG Reporting Station
Overcast Overcast  
Wind Chill: 27°   Ceiling: 1900
Heat Index: 32°   Visibility: 10mi
Dew Point: 22°   Wind: 5mph
Humidity: 66%   Direction: 10°N
Pressure: 30.28"   Gusts: NA
Location:  39.0588°N, 84.6513°W
Report Text: KCVG 210652Z 01004KT 10SM OVC019 00/M06 A3028 RMK AO2 SLP260 T00001056
Loading
Personal Weather Stations






























Interactive Weather Map New forecast layout! Learn more

10-Day Weather Forecast

Advertisements
Track Severe Weather on mobile